Time;durP1;ratioP1;P1;durP2;ratioP2;P2;SDS_P1;SDS_P2;PMS_P1;PMS_P2;Temp;Humidity;BMP_temperature;BMP_pressure;BME280_temperature;BME280_humidity;BME280_pressure;Samples;Min_cycle;Max_cycle;Signal;HPM_P1;HPM_P2
2023/01/12 04:03:10;;;;;;;;;;;8.50;99.90;;;;;;4973907;28;19933;-71
2023/01/12 04:05:37;;;;;;;;;;;8.50;99.90;;;;;;4977008;28;19926;-71
2023/01/12 04:08:03;;;;;;;;;;;8.50;99.90;;;;;;4972688;28;20025;-70
2023/01/12 04:10:30;;;;;;;;;;;8.50;99.90;;;;;;4973337;28;20009;-71
2023/01/12 04:12:57;;;;;;;;;;;8.40;99.90;;;;;;4960828;28;19927;-71
2023/01/12 04:15:23;;;;;;;;;;;8.40;99.90;;;;;;4964024;28;20013;-70
2023/01/12 04:17:50;;;;;;;;;;;8.40;99.90;;;;;;4964523;28;20030;-70
2023/01/12 04:20:18;;;;;;;;;;;8.40;99.90;;;;;;4961248;28;19933;-73
2023/01/12 04:22:44;;;;;;;;;;;8.50;99.90;;;;;;4964606;28;19931;-72
2023/01/12 04:25:12;;;;;;;;;;;8.40;99.90;;;;;;4965433;28;19926;-71
2023/01/12 04:27:41;;;;;;;;;;;8.30;99.90;;;;;;4969301;28;20012;-70
2023/01/12 04:30:08;;;;;;;;;;;8.20;99.90;;;;;;4965023;28;20013;-72
2023/01/12 04:32:35;;;;;;;;;;;8.20;99.90;;;;;;4967712;28;19952;-72
2023/01/12 04:35:01;;;;;;;;;;;8.10;99.90;;;;;;4965046;28;20298;-72
2023/01/12 04:37:31;;;;;;;;;;;8.00;99.90;;;;;;4967616;28;19930;-72
2023/01/12 04:39:57;;;;;;;;;;;8.00;99.90;;;;;;4961703;28;20383;-71
2023/01/12 04:45:09;;;;;;;;;;;8.00;99.90;;;;;;4962490;28;20305;-71
2023/01/12 04:47:36;;;;;;;;;;;8.00;99.90;;;;;;4965071;28;19927;-71
2023/01/12 04:50:03;;;;;;;;;;;7.90;99.90;;;;;;4962754;28;20455;-72
2023/01/12 04:52:31;;;;;;;;;;;8.00;99.90;;;;;;4971429;28;20336;-72
2023/01/12 04:54:58;;;;;;;;;;;7.90;99.90;;;;;;4966617;28;19981;-70
2023/01/12 04:57:25;;;;;;;;;;;7.90;99.90;;;;;;4970259;28;20381;-72
2023/01/12 04:59:51;;;;;;;;;;;7.90;99.90;;;;;;4962922;28;19930;-72
2023/01/12 05:02:18;;;;;;;;;;;7.90;99.90;;;;;;4965565;28;19930;-72
2023/01/12 05:04:46;;;;;;;;;;;7.90;99.90;;;;;;4964214;28;19926;-71
2023/01/12 05:07:13;;;;;;;;;;;7.90;99.90;;;;;;4959400;28;20401;-72
2023/01/12 05:12:26;;;;;;;;;;;7.90;99.90;;;;;;4966457;28;20393;-72
2023/01/12 05:14:53;;;;;;;;;;;7.90;99.90;;;;;;4959450;28;19926;-72
2023/01/12 05:17:20;;;;;;;;;;;7.90;99.90;;;;;;4961371;28;19933;-73
2023/01/12 05:19:48;;;;;;;;;;;7.80;99.90;;;;;;4965565;28;19934;-73
2023/01/12 05:22:15;;;;;;;;;;;7.80;99.90;;;;;;4958725;28;19981;-73
2023/01/12 05:24:43;;;;;;;;;;;7.80;99.90;;;;;;4957361;28;20369;-73
2023/01/12 05:27:10;;;;;;;;;;;7.80;99.90;;;;;;4954947;28;19930;-71
2023/01/12 05:29:37;;;;;;;;;;;7.70;99.90;;;;;;4956923;28;19926;-72
2023/01/12 05:32:03;;;;;;;;;;;7.70;99.90;;;;;;4955128;28;20454;-73
2023/01/12 05:34:30;;;;;;;;;;;7.70;99.90;;;;;;4954792;28;19985;-74
2023/01/12 05:36:57;;;;;;;;;;;7.70;99.90;;;;;;4960324;28;19926;-73
2023/01/12 05:39:24;;;;;;;;;;;7.70;99.90;;;;;;4961338;28;19932;-74
2023/01/12 05:44:36;;;;;;;;;;;7.70;99.90;;;;;;4958020;28;19926;-74
2023/01/12 05:47:03;;;;;;;;;;;7.60;99.90;;;;;;4959648;28;19938;-73
2023/01/12 05:49:29;;;;;;;;;;;7.70;99.90;;;;;;4956160;28;19927;-74
2023/01/12 05:51:56;;;;;;;;;;;7.70;99.90;;;;;;4956220;28;19926;-77
2023/01/12 05:54:23;;;;;;;;;;;7.70;99.90;;;;;;4962159;28;19985;-79
2023/01/12 05:56:50;;;;;;;;;;;7.70;99.90;;;;;;4963909;28;19927;-78
2023/01/12 05:59:18;;;;;;;;;;;7.80;99.90;;;;;;4963363;28;19933;-77
2023/01/12 06:01:45;;;;;;;;;;;7.80;99.90;;;;;;4891929;28;1821771;-81
2023/01/12 06:04:11;;;;;;;;;;;7.80;99.90;;;;;;4957326;28;19931;-80
2023/01/12 06:06:38;;;;;;;;;;;7.80;99.90;;;;;;4959857;28;19931;-79
2023/01/12 06:09:05;;;;;;;;;;;7.90;99.90;;;;;;4961324;28;19926;-79
2023/01/12 06:14:16;;;;;;;;;;;7.90;99.90;;;;;;4958829;28;20338;-76
2023/01/12 06:16:44;;;;;;;;;;;7.90;99.90;;;;;;4962896;28;19927;-75
2023/01/12 06:19:11;;;;;;;;;;;7.90;99.90;;;;;;4964964;28;19934;-73
2023/01/12 06:21:39;;;;;;;;;;;8.00;99.90;;;;;;4958330;28;19927;-75
2023/01/12 06:24:06;;;;;;;;;;;8.00;99.90;;;;;;4960654;28;19937;-75
2023/01/12 06:26:33;;;;;;;;;;;8.00;99.90;;;;;;4952180;28;19930;-72
2023/01/12 06:29:00;;;;;;;;;;;8.10;99.90;;;;;;4956826;28;20373;-75
2023/01/12 06:31:26;;;;;;;;;;;8.10;99.90;;;;;;4966258;28;20397;-75
2023/01/12 06:33:54;;;;;;;;;;;8.10;99.90;;;;;;4955632;28;20473;-75
2023/01/12 06:36:21;;;;;;;;;;;8.00;99.90;;;;;;4947791;28;19930;-74
2023/01/12 06:38:48;;;;;;;;;;;8.10;99.90;;;;;;4961028;28;19926;-75
2023/01/12 06:44:05;;;;;;;;;;;8.00;99.90;;;;;;5136484;27;19918;-73
2023/01/12 06:46:32;;;;;;;;;;;8.20;99.90;;;;;;5133365;27;20402;-70
2023/01/12 06:48:59;;;;;;;;;;;8.20;99.90;;;;;;5134833;27;19923;-73
2023/01/12 06:51:26;;;;;;;;;;;8.20;99.90;;;;;;5129892;27;19971;-72
2023/01/12 06:53:52;;;;;;;;;;;8.20;99.90;;;;;;5129939;27;19977;-74
2023/01/12 06:56:19;;;;;;;;;;;8.30;99.90;;;;;;5122687;28;19931;-73
2023/01/12 06:58:46;;;;;;;;;;;8.20;99.90;;;;;;5137149;27;20342;-73
2023/01/12 07:01:15;;;;;;;;;;;8.40;99.90;;;;;;5114680;27;19946;-74
2023/01/12 07:03:42;;;;;;;;;;;8.30;99.90;;;;;;5129149;27;19959;-73
2023/01/12 07:06:09;;;;;;;;;;;8.20;99.90;;;;;;5114698;27;19969;-73
2023/01/12 07:08:36;;;;;;;;;;;8.30;99.90;;;;;;5129900;27;20350;-75
2023/01/12 07:11:03;;;;;;;;;;;8.30;99.90;;;;;;5114505;27;20393;-74
2023/01/12 07:13:30;;;;;;;;;;;8.50;99.90;;;;;;5114963;28;20321;-72
2023/01/12 07:15:58;;;;;;;;;;;8.50;99.90;;;;;;5133790;27;19932;-73
2023/01/12 07:18:26;;;;;;;;;;;8.50;99.90;;;;;;5131283;27;19977;-73
2023/01/12 07:20:53;;;;;;;;;;;8.50;99.90;;;;;;5131943;27;19973;-74
2023/01/12 07:23:20;;;;;;;;;;;8.50;99.90;;;;;;5135822;27;19928;-73
2023/01/12 07:25:46;;;;;;;;;;;8.50;99.90;;;;;;5138284;27;19960;-74
2023/01/12 07:28:13;;;;;;;;;;;8.50;99.90;;;;;;5129558;27;19973;-72
2023/01/12 07:30:40;;;;;;;;;;;8.50;99.90;;;;;;5117943;27;19931;-73
2023/01/12 07:33:08;;;;;;;;;;;8.70;99.90;;;;;;5116209;28;19974;-72
2023/01/12 07:35:36;;;;;;;;;;;8.70;99.90;;;;;;5114347;28;19945;-73
2023/01/12 07:38:03;;;;;;;;;;;8.70;99.90;;;;;;5134547;27;19924;-74
2023/01/12 07:40:29;;;;;;;;;;;8.80;99.90;;;;;;5119056;28;20344;-74
2023/01/12 07:42:59;;;;;;;;;;;8.80;99.90;;;;;;5117684;28;19966;-73
2023/01/12 07:45:26;;;;;;;;;;;8.80;99.90;;;;;;5114619;28;19928;-73
2023/01/12 07:47:53;;;;;;;;;;;8.70;99.90;;;;;;5118850;28;19928;-70
2023/01/12 07:50:20;;;;;;;;;;;8.70;99.90;;;;;;5133330;27;20432;-69
2023/01/12 07:52:48;;;;;;;;;;;8.70;99.90;;;;;;5123132;27;19984;-71
2023/01/12 07:55:17;;;;;;;;;;;8.70;99.90;;;;;;5104971;28;19932;-72
2023/01/12 07:57:44;;;;;;;;;;;8.80;99.90;;;;;;5102320;28;20019;-70
2023/01/12 08:00:12;;;;;;;;;;;8.80;99.90;;;;;;5121186;27;19924;-70
2023/01/12 08:02:46;;;;;;;;;;;8.80;99.90;;;;;;5106020;28;20329;-71
2023/01/12 08:05:13;;;;;;;;;;;8.90;99.90;;;;;;5122028;27;19924;-73
2023/01/12 08:07:39;;;;;;;;;;;8.80;99.90;;;;;;5102081;28;19959;-72
2023/01/12 08:10:09;;;;;;;;;;;8.90;99.90;;;;;;5119966;27;19935;-72
2023/01/12 08:12:36;;;;;;;;;;;8.90;99.90;;;;;;5100871;28;19923;-73
2023/01/12 08:15:03;;;;;;;;;;;8.90;99.90;;;;;;5098655;28;19932;-72
2023/01/12 08:17:32;;;;;;;;;;;9.00;99.90;;;;;;5103651;28;20436;-73
2023/01/12 08:20:00;;;;;;;;;;;8.90;99.90;;;;;;5101215;28;19963;-71
2023/01/12 08:22:28;;;;;;;;;;;9.00;99.90;;;;;;5120478;27;19936;-70
2023/01/12 08:24:57;;;;;;;;;;;9.00;99.90;;;;;;5102252;27;20375;-72
2023/01/12 08:27:26;;;;;;;;;;;9.10;99.90;;;;;;5118317;27;19924;-70
2023/01/12 08:29:54;;;;;;;;;;;9.10;99.90;;;;;;5096787;28;20422;-73
2023/01/12 08:32:21;;;;;;;;;;;9.10;99.90;;;;;;5097883;28;19924;-72
2023/01/12 08:34:48;;;;;;;;;;;9.10;99.90;;;;;;5116422;27;20390;-69
2023/01/12 08:37:17;;;;;;;;;;;9.10;99.90;;;;;;5100694;28;19924;-70
2023/01/12 08:39:43;;;;;;;;;;;9.20;99.90;;;;;;5120465;27;20014;-72
2023/01/12 08:42:10;;;;;;;;;;;9.20;99.90;;;;;;5103048;28;19928;-72
2023/01/12 08:44:38;;;;;;;;;;;9.20;99.90;;;;;;5118410;27;19928;-73
2023/01/12 08:47:06;;;;;;;;;;;9.30;99.90;;;;;;5101803;28;19971;-73
2023/01/12 08:49:33;;;;;;;;;;;9.30;99.90;;;;;;5115068;27;20386;-71
2023/01/12 08:52:00;;;;;;;;;;;9.40;99.90;;;;;;5115780;27;19924;-72
2023/01/12 08:54:27;;;;;;;;;;;9.40;99.90;;;;;;5101874;28;19933;-72
2023/01/12 08:56:53;;;;;;;;;;;9.40;99.90;;;;;;5099760;28;20317;-72
2023/01/12 08:59:20;;;;;;;;;;;9.40;99.90;;;;;;5108765;27;19992;-72
2023/01/12 09:01:48;;;;;;;;;;;9.50;99.90;;;;;;5118961;27;19932;-70
2023/01/12 09:04:15;;;;;;;;;;;9.50;99.90;;;;;;5118469;27;19931;-70
2023/01/12 09:06:43;;;;;;;;;;;9.50;99.90;;;;;;5102889;28;20527;-72
2023/01/12 09:09:10;;;;;;;;;;;9.50;99.90;;;;;;5116193;27;19963;-72
2023/01/12 09:11:37;;;;;;;;;;;9.50;99.90;;;;;;5098106;28;19927;-74
2023/01/12 09:14:04;;;;;;;;;;;9.60;99.90;;;;;;5118255;27;19923;-73
2023/01/12 09:16:32;;;;;;;;;;;9.60;99.90;;;;;;5100419;28;19959;-72
2023/01/12 09:19:00;;;;;;;;;;;9.60;99.90;;;;;;5099595;28;20022;-72
2023/01/12 09:21:29;;;;;;;;;;;9.60;99.90;;;;;;5098871;28;19928;-73
2023/01/12 09:23:56;;;;;;;;;;;9.60;99.90;;;;;;5116401;27;19930;-72
2023/01/12 09:26:24;;;;;;;;;;;9.70;99.90;;;;;;5120428;27;19939;-74
2023/01/12 09:28:51;;;;;;;;;;;9.70;99.90;;;;;;5113733;27;19923;-70
2023/01/12 09:31:19;;;;;;;;;;;9.70;99.90;;;;;;5120043;27;19932;-72
2023/01/12 09:33:46;;;;;;;;;;;9.80;99.90;;;;;;5101043;28;20370;-73
2023/01/12 09:36:15;;;;;;;;;;;9.70;99.90;;;;;;5118586;27;19932;-73
2023/01/12 09:38:42;;;;;;;;;;;9.80;99.90;;;;;;5115961;27;19927;-74
2023/01/12 09:41:11;;;;;;;;;;;9.90;99.90;;;;;;5105357;28;20348;-73
2023/01/12 09:49:13;;;;;;;;;;;9.90;99.90;;;;;;5116439;27;19924;-75
2023/01/12 09:51:43;;;;;;;;;;;10.00;99.90;;;;;;5118712;27;20414;-75
2023/01/12 09:54:10;;;;;;;;;;;9.90;99.90;;;;;;5101418;28;19924;-76
2023/01/12 09:56:40;;;;;;;;;;;9.90;99.90;;;;;;5113212;27;19935;-75
2023/01/12 09:59:12;;;;;;;;;;;9.90;99.90;;;;;;5115926;27;19970;-73
2023/01/12 10:01:38;;;;;;;;;;;9.90;99.90;;;;;;5100380;28;19924;-75
2023/01/12 10:04:06;;;;;;;;;;;10.00;99.90;;;;;;5117384;27;19971;-73
2023/01/12 10:06:34;;;;;;;;;;;9.90;99.90;;;;;;5114202;27;19955;-75
2023/01/12 10:09:04;;;;;;;;;;;10.00;99.90;;;;;;5119374;27;19951;-75
2023/01/12 10:11:34;;;;;;;;;;;10.00;99.90;;;;;;5097919;28;19924;-75
2023/01/12 10:14:21;;;;;;;;;;;10.20;99.90;;;;;;5099304;28;19923;-76
2023/01/12 10:17:06;;;;;;;;;;;10.10;99.90;;;;;;5096055;28;19935;-74
2023/01/12 10:19:36;;;;;;;;;;;10.20;99.90;;;;;;5112187;27;19967;-75
2023/01/12 10:22:11;;;;;;;;;;;10.20;99.90;;;;;;5114662;27;19924;-77
2023/01/12 10:24:41;;;;;;;;;;;10.30;99.90;;;;;;5097700;28;20378;-74
2023/01/12 10:27:10;;;;;;;;;;;10.20;99.90;;;;;;5098506;28;19924;-74
2023/01/12 10:29:37;;;;;;;;;;;10.40;99.90;;;;;;5101488;28;19979;-76
2023/01/12 10:32:04;;;;;;;;;;;10.50;99.90;;;;;;5116401;27;19985;-72
2023/01/12 10:34:46;;;;;;;;;;;10.70;99.90;;;;;;5103367;28;19928;-70
2023/01/12 10:37:12;;;;;;;;;;;10.80;99.90;;;;;;5100807;28;19927;-74
2023/01/12 10:39:43;;;;;;;;;;;10.80;99.90;;;;;;5117599;27;19931;-72
2023/01/12 10:45:15;;;;;;;;;;;10.70;99.90;;;;;;5069531;28;19924;-71
2023/01/12 10:47:43;;;;;;;;;;;10.80;99.90;;;;;;5099949;28;20019;-73
2023/01/12 10:50:20;;;;;;;;;;;10.80;99.90;;;;;;5115954;28;19927;-72
2023/01/12 10:52:49;;;;;;;;;;;10.70;99.90;;;;;;5096993;28;19932;-75
2023/01/12 10:55:21;;;;;;;;;;;10.70;99.90;;;;;;5114930;28;19924;-74
2023/01/12 10:57:48;;;;;;;;;;;10.80;99.90;;;;;;5117200;28;19977;-74
2023/01/12 11:00:19;;;;;;;;;;;10.80;99.90;;;;;;5100988;28;19932;-75
2023/01/12 11:02:46;;;;;;;;;;;10.80;99.90;;;;;;5116580;28;19974;-75
2023/01/12 11:05:26;;;;;;;;;;;10.90;99.90;;;;;;5111558;28;19968;-72
2023/01/12 11:07:53;;;;;;;;;;;10.90;99.90;;;;;;5106591;28;19973;-75
2023/01/12 11:10:26;;;;;;;;;;;10.90;99.90;;;;;;5103576;28;19928;-75
2023/01/12 11:12:55;;;;;;;;;;;10.70;99.90;;;;;;5107466;28;19928;-75
2023/01/12 11:15:21;;;;;;;;;;;10.80;99.90;;;;;;5108853;28;19924;-75
2023/01/12 11:17:55;;;;;;;;;;;10.90;99.90;;;;;;5116663;28;20344;-75
2023/01/12 11:20:27;;;;;;;;;;;10.90;99.90;;;;;;5112133;28;20019;-76
2023/01/12 11:22:55;;;;;;;;;;;10.90;99.90;;;;;;5102612;28;19932;-74
2023/01/12 11:25:24;;;;;;;;;;;10.90;99.90;;;;;;5105948;28;20375;-76
2023/01/12 11:27:52;;;;;;;;;;;10.90;99.90;;;;;;5114444;28;19924;-76
2023/01/12 11:30:21;;;;;;;;;;;10.90;99.90;;;;;;5099307;28;19934;-76
2023/01/12 11:32:53;;;;;;;;;;;11.00;99.90;;;;;;5105073;28;20056;-74
2023/01/12 11:35:26;;;;;;;;;;;10.90;99.90;;;;;;5113544;27;19935;-76
2023/01/12 11:37:55;;;;;;;;;;;10.90;99.90;;;;;;5094992;28;19924;-76
2023/01/12 11:40:27;;;;;;;;;;;10.80;99.90;;;;;;5091951;28;20015;-76
2023/01/12 11:45:42;;;;;;;;;;;10.90;99.90;;;;;;5116661;27;19928;-75
2023/01/12 11:48:14;;;;;;;;;;;10.90;99.90;;;;;;5101153;28;19936;-76
2023/01/12 11:50:43;;;;;;;;;;;10.80;99.90;;;;;;5098362;28;19977;-75
2023/01/12 11:53:14;;;;;;;;;;;10.80;99.90;;;;;;5102118;28;19924;-75
2023/01/12 11:55:50;;;;;;;;;;;10.80;99.90;;;;;;5101123;28;19928;-75
2023/01/12 11:58:20;;;;;;;;;;;10.80;99.90;;;;;;5105100;28;19927;-72
2023/01/12 12:00:52;;;;;;;;;;;10.80;99.90;;;;;;5102803;28;19931;-75
2023/01/12 12:03:33;;;;;;;;;;;10.70;99.90;;;;;;5098520;28;19927;-73
2023/01/12 12:06:06;;;;;;;;;;;10.70;99.90;;;;;;5099784;28;19924;-75
2023/01/12 12:08:39;;;;;;;;;;;10.70;99.90;;;;;;5104000;28;19932;-76
2023/01/12 12:11:10;;;;;;;;;;;10.60;99.90;;;;;;5102258;28;19933;-74
2023/01/12 12:13:40;;;;;;;;;;;10.60;99.90;;;;;;5098559;28;19928;-75
2023/01/12 12:16:14;;;;;;;;;;;10.60;99.90;;;;;;5101090;28;20405;-75
2023/01/12 12:18:49;;;;;;;;;;;10.60;99.90;;;;;;5119480;27;19924;-74
2023/01/12 12:21:30;;;;;;;;;;;10.60;99.90;;;;;;5097733;28;19927;-75
2023/01/12 12:23:57;;;;;;;;;;;;;;;;;;5108533;27;19925;-75
2023/01/12 12:26:29;;;;;;;;;;;10.30;99.90;;;;;;5098906;28;19928;-76
2023/01/12 12:29:06;;;;;;;;;;;10.50;99.90;;;;;;5096752;28;19928;-75
2023/01/12 12:31:40;;;;;;;;;;;10.40;99.90;;;;;;5102391;28;19923;-75
2023/01/12 12:34:22;;;;;;;;;;;10.50;99.90;;;;;;5102701;28;19932;-75
2023/01/12 12:36:53;;;;;;;;;;;10.40;99.90;;;;;;5099864;28;20309;-75
2023/01/12 12:39:34;;;;;;;;;;;10.40;99.90;;;;;;5099803;28;19928;-75
2023/01/12 12:47:45;;;;;;;;;;;10.40;99.90;;;;;;5100452;27;20313;-74
2023/01/12 12:50:16;;;;;;;;;;;10.40;99.90;;;;;;5106284;27;19923;-71
2023/01/12 12:52:43;;;;;;;;;;;10.40;99.90;;;;;;5107183;27;20010;-73
2023/01/12 12:55:11;;;;;;;;;;;10.40;99.90;;;;;;5107246;27;20295;-70
2023/01/12 12:57:52;;;;;;;;;;;10.40;99.90;;;;;;5104066;28;20386;-72
2023/01/12 13:00:19;;;;;;;;;;;;;;;;;;5100208;28;20398;-73
2023/01/12 13:02:54;;;;;;;;;;;10.30;99.90;;;;;;5111302;28;20397;-72
2023/01/12 13:05:36;;;;;;;;;;;10.50;99.90;;;;;;5097563;28;19930;-73
2023/01/12 13:08:03;;;;;;;;;;;10.50;99.90;;;;;;5117466;27;20401;-74
2023/01/12 13:10:31;;;;;;;;;;;10.50;99.90;;;;;;5100179;27;20194;-73
2023/01/12 13:13:00;;;;;;;;;;;10.50;99.90;;;;;;5103971;27;19927;-73
2023/01/12 13:15:31;;;;;;;;;;;10.50;99.90;;;;;;5105030;28;20390;-73
2023/01/12 13:17:59;;;;;;;;;;;10.60;99.90;;;;;;5103730;27;20316;-73
2023/01/12 13:20:44;;;;;;;;;;;10.60;99.90;;;;;;5101515;28;19928;-73
2023/01/12 13:23:29;;;;;;;;;;;10.60;99.90;;;;;;5089436;27;20327;-72
2023/01/12 13:25:56;;;;;;;;;;;10.60;99.90;;;;;;5117050;27;19924;-73
2023/01/12 13:28:23;;;;;;;;;;;10.70;99.90;;;;;;5106027;27;19970;-73
2023/01/12 13:30:51;;;;;;;;;;;10.70;99.90;;;;;;5099894;27;20347;-72
2023/01/12 13:33:23;;;;;;;;;;;10.70;99.90;;;;;;5101887;27;19930;-73
2023/01/12 13:36:01;;;;;;;;;;;10.70;99.90;;;;;;5105178;28;20018;-74
2023/01/12 13:38:35;;;;;;;;;;;10.80;99.90;;;;;;5117184;27;19972;-72
2023/01/12 13:41:02;;;;;;;;;;;10.80;99.90;;;;;;5103573;27;19923;-71
2023/01/12 13:43:29;;;;;;;;;;;10.70;99.90;;;;;;5119833;27;20393;-73
2023/01/12 13:45:58;;;;;;;;;;;10.70;99.90;;;;;;5105895;27;19931;-72
2023/01/12 13:48:27;;;;;;;;;;;10.70;99.90;;;;;;5102592;27;19955;-73
2023/01/12 13:50:55;;;;;;;;;;;10.70;99.90;;;;;;5099888;28;19928;-73
2023/01/12 13:53:24;;;;;;;;;;;10.80;99.90;;;;;;5087513;28;19978;-72
2023/01/12 13:55:58;;;;;;;;;;;10.80;99.90;;;;;;5123956;27;19977;-73
2023/01/12 13:58:25;;;;;;;;;;;10.80;99.90;;;;;;5097244;28;19924;-70
2023/01/12 14:00:56;;;;;;;;;;;10.70;99.90;;;;;;5103710;28;19924;-73
2023/01/12 14:03:34;;;;;;;;;;;10.70;99.90;;;;;;5118398;27;19967;-74
2023/01/12 14:06:03;;;;;;;;;;;10.70;99.90;;;;;;5099572;27;19927;-73
2023/01/12 14:08:39;;;;;;;;;;;10.70;99.90;;;;;;5097476;27;20334;-71
2023/01/12 14:11:12;;;;;;;;;;;10.70;99.90;;;;;;5099419;27;19923;-74
2023/01/12 14:13:50;;;;;;;;;;;10.70;99.90;;;;;;5101219;27;19972;-71
2023/01/12 14:19:18;;;;;;;;;;;10.70;99.90;;;;;;5102447;28;19953;-75
2023/01/12 14:21:54;;;;;;;;;;;10.70;99.90;;;;;;5102583;28;19923;-75
2023/01/12 14:24:22;;;;;;;;;;;10.70;99.90;;;;;;5113906;27;19924;-74
2023/01/12 14:26:48;;;;;;;;;;;10.60;99.90;;;;;;5098408;27;19972;-72
2023/01/12 14:29:15;;;;;;;;;;;10.60;99.90;;;;;;5099463;27;20365;-75
2023/01/12 14:31:43;;;;;;;;;;;10.70;99.90;;;;;;5119312;27;19946;-74
2023/01/12 14:34:21;;;;;;;;;;;10.60;99.90;;;;;;5101516;28;20328;-75
2023/01/12 14:36:48;;;;;;;;;;;10.60;99.90;;;;;;5101335;28;20010;-76
2023/01/12 14:39:18;;;;;;;;;;;10.70;99.90;;;;;;5104406;28;20030;-75
2023/01/12 14:47:22;;;;;;;;;;;10.80;99.90;;;;;;5121818;28;20397;-77
2023/01/12 14:49:51;;;;;;;;;;;10.80;99.90;;;;;;5105562;28;19931;-77
2023/01/12 14:52:26;;;;;;;;;;;10.70;99.90;;;;;;5105291;28;19924;-76
2023/01/12 14:54:53;;;;;;;;;;;10.70;99.90;;;;;;5101398;28;20287;-74
2023/01/12 14:57:20;;;;;;;;;;;10.80;99.90;;;;;;5099124;28;20399;-74
2023/01/12 14:59:48;;;;;;;;;;;10.70;99.90;;;;;;5102262;28;19936;-73
2023/01/12 15:02:15;;;;;;;;;;;;;;;;;;5100536;28;19932;-73
2023/01/12 15:04:42;;;;;;;;;;;;;;;;;;5101560;27;19974;-74
2023/01/12 15:07:09;;;;;;;;;;;;;;;;;;5125642;27;20302;-74
2023/01/12 15:09:50;;;;;;;;;;;10.60;99.90;;;;;;5124205;27;19970;-74
2023/01/12 15:12:24;;;;;;;;;;;10.60;99.90;;;;;;5103289;27;19923;-74
2023/01/12 15:14:51;;;;;;;;;;;10.60;99.90;;;;;;5102902;28;19928;-72
2023/01/12 15:25:38;;;;;;;;;;;10.60;99.90;;;;;;5108812;28;20040;-71
2023/01/12 15:28:05;;;;;;;;;;;10.60;99.90;;;;;;5099602;27;19924;-74
2023/01/12 15:30:33;;;;;;;;;;;10.70;99.90;;;;;;5105442;27;19924;-78
2023/01/12 15:33:00;;;;;;;;;;;10.70;99.90;;;;;;5108382;27;19969;-71
2023/01/12 15:35:28;;;;;;;;;;;10.70;99.90;;;;;;5105970;27;19947;-74
2023/01/12 15:37:56;;;;;;;;;;;10.70;99.90;;;;;;5106784;28;19931;-72
2023/01/12 15:40:23;;;;;;;;;;;10.70;99.90;;;;;;5103517;28;19927;-74
2023/01/12 15:42:52;;;;;;;;;;;10.70;99.90;;;;;;5118073;27;20351;-73
2023/01/12 15:45:26;;;;;;;;;;;10.70;99.90;;;;;;5102932;27;19972;-74
2023/01/12 15:47:52;;;;;;;;;;;10.70;99.90;;;;;;5106781;27;19923;-73
2023/01/12 15:50:19;;;;;;;;;;;10.70;99.90;;;;;;5108773;27;20306;-72
2023/01/12 15:52:47;;;;;;;;;;;10.70;99.90;;;;;;5123933;27;19930;-75
2023/01/12 15:55:16;;;;;;;;;;;10.80;99.90;;;;;;5106619;27;19924;-73
2023/01/12 15:57:43;;;;;;;;;;;10.80;99.90;;;;;;5102810;28;20385;-74
2023/01/12 16:00:13;;;;;;;;;;;10.80;99.90;;;;;;5106466;27;19931;-74
2023/01/12 16:02:41;;;;;;;;;;;10.80;99.90;;;;;;5067004;22;19933;-72
2023/01/12 16:05:10;;;;;;;;;;;10.80;99.90;;;;;;5030434;28;20402;-73
2023/01/12 16:07:37;;;;;;;;;;;10.80;99.90;;;;;;5030861;28;20019;-72
2023/01/12 16:10:04;;;;;;;;;;;10.80;99.90;;;;;;5034498;28;19931;-71
2023/01/12 16:12:31;;;;;;;;;;;10.80;99.90;;;;;;5029517;28;19929;-72
2023/01/12 16:14:58;;;;;;;;;;;10.80;99.90;;;;;;5027720;28;20016;-72
2023/01/12 16:17:27;;;;;;;;;;;10.80;99.90;;;;;;5025933;28;20369;-72
2023/01/12 16:19:53;;;;;;;;;;;10.70;99.90;;;;;;5024121;28;19925;-73
2023/01/12 16:22:21;;;;;;;;;;;10.70;99.90;;;;;;5031667;28;19925;-73
2023/01/12 16:24:48;;;;;;;;;;;10.70;99.90;;;;;;5031281;28;19925;-71
2023/01/12 16:27:15;;;;;;;;;;;10.80;99.90;;;;;;5027366;28;19934;-72
2023/01/12 16:29:42;;;;;;;;;;;10.80;99.90;;;;;;5019087;28;19925;-73
2023/01/12 16:32:09;;;;;;;;;;;10.80;99.90;;;;;;5016326;28;19966;-71
2023/01/12 16:34:40;;;;;;;;;;;10.80;99.90;;;;;;5039991;28;19968;-72
2023/01/12 16:37:10;;;;;;;;;;;10.80;99.90;;;;;;5014602;28;19929;-73
2023/01/12 16:39:37;;;;;;;;;;;10.80;99.90;;;;;;5031618;28;19979;-72
2023/01/12 16:42:04;;;;;;;;;;;10.80;99.90;;;;;;5030892;28;19975;-72
2023/01/12 16:44:36;;;;;;;;;;;10.90;99.90;;;;;;5045287;28;19925;-71
2023/01/12 16:47:03;;;;;;;;;;;10.90;99.90;;;;;;5029358;28;20002;-72
2023/01/12 16:49:29;;;;;;;;;;;10.90;99.90;;;;;;5032056;28;19929;-73
2023/01/12 16:51:58;;;;;;;;;;;11.00;99.90;;;;;;5033717;28;20375;-73
2023/01/12 16:54:25;;;;;;;;;;;10.90;99.90;;;;;;5024286;28;19953;-73
2023/01/12 16:56:52;;;;;;;;;;;10.90;99.90;;;;;;5019621;28;19925;-72
2023/01/12 16:59:19;;;;;;;;;;;10.90;99.90;;;;;;5047139;28;19936;-74
2023/01/12 17:01:50;;;;;;;;;;;10.90;99.90;;;;;;5009888;28;19926;-71
2023/01/12 17:04:18;;;;;;;;;;;11.00;99.90;;;;;;5023796;28;19929;-70
2023/01/12 17:06:46;;;;;;;;;;;11.00;99.90;;;;;;5042394;28;20311;-70
2023/01/12 17:09:14;;;;;;;;;;;11.10;99.90;;;;;;5038944;28;19929;-71
2023/01/12 17:11:42;;;;;;;;;;;11.10;99.90;;;;;;5028320;28;19960;-71
2023/01/12 17:14:22;;;;;;;;;;;11.10;99.90;;;;;;5028883;28;19932;-70
2023/01/12 17:16:50;;;;;;;;;;;11.10;99.90;;;;;;5028038;28;20008;-70
2023/01/12 17:19:17;;;;;;;;;;;11.10;99.90;;;;;;5010351;28;19933;-70
2023/01/12 17:21:44;;;;;;;;;;;11.10;99.90;;;;;;5027404;28;19925;-70
2023/01/12 17:24:12;;;;;;;;;;;11.10;99.90;;;;;;5031989;28;20016;-73
2023/01/12 17:26:40;;;;;;;;;;;11.10;99.90;;;;;;5011330;28;19956;-70
2023/01/12 17:29:09;;;;;;;;;;;11.00;99.90;;;;;;5023105;28;19930;-69
2023/01/12 17:31:36;;;;;;;;;;;10.90;99.90;;;;;;5031571;28;19925;-70
2023/01/12 17:34:03;;;;;;;;;;;10.80;99.90;;;;;;5030832;28;19925;-71
2023/01/12 17:36:30;;;;;;;;;;;10.70;99.90;;;;;;5012417;28;19953;-72
2023/01/12 17:38:57;;;;;;;;;;;10.80;99.90;;;;;;5009876;28;20478;-70
2023/01/12 17:44:09;;;;;;;;;;;10.70;99.90;;;;;;5030117;28;19927;-70
2023/01/12 17:46:36;;;;;;;;;;;10.70;99.90;;;;;;5028765;28;19926;-70
2023/01/12 17:49:04;;;;;;;;;;;10.70;99.90;;;;;;5021553;28;19930;-70
2023/01/12 17:51:31;;;;;;;;;;;10.60;99.90;;;;;;5026656;28;19929;-77
2023/01/12 17:53:58;;;;;;;;;;;10.60;99.90;;;;;;5022180;28;19929;-76
2023/01/12 17:56:25;;;;;;;;;;;10.50;99.90;;;;;;5026353;28;20355;-78
2023/01/12 17:58:53;;;;;;;;;;;10.50;99.90;;;;;;5038720;28;19929;-76
2023/01/12 18:01:22;;;;;;;;;;;10.40;99.90;;;;;;5012680;28;19926;-76
2023/01/12 18:03:49;;;;;;;;;;;10.40;99.90;;;;;;5034890;28;19925;-76
2023/01/12 18:06:16;;;;;;;;;;;10.30;99.90;;;;;;5035169;28;19925;-75
2023/01/12 18:08:45;;;;;;;;;;;10.30;99.90;;;;;;5036731;28;19932;-71
2023/01/12 18:11:12;;;;;;;;;;;10.30;99.90;;;;;;5027155;28;19932;-70
2023/01/12 18:13:39;;;;;;;;;;;10.30;99.90;;;;;;5011881;28;19929;-71
2023/01/12 18:16:06;;;;;;;;;;;10.30;99.90;;;;;;5012763;28;19933;-70
2023/01/12 18:18:35;;;;;;;;;;;10.30;99.90;;;;;;5027876;28;19975;-69
2023/01/12 18:21:03;;;;;;;;;;;10.30;99.90;;;;;;5008647;28;19937;-70
2023/01/12 18:23:30;;;;;;;;;;;10.30;99.90;;;;;;5013180;28;19925;-70
2023/01/12 18:25:57;;;;;;;;;;;10.30;99.90;;;;;;5028068;28;19940;-70
2023/01/12 18:28:23;;;;;;;;;;;10.30;99.90;;;;;;5029630;28;19926;-66
2023/01/12 18:30:50;;;;;;;;;;;10.30;99.90;;;;;;5036599;28;19925;-66
2023/01/12 18:33:17;;;;;;;;;;;10.40;99.90;;;;;;5010575;28;19929;-68
2023/01/12 18:35:45;;;;;;;;;;;10.30;99.90;;;;;;5036061;28;19972;-67
2023/01/12 18:38:12;;;;;;;;;;;10.30;99.90;;;;;;5035948;28;19976;-67
2023/01/12 18:40:39;;;;;;;;;;;10.30;99.90;;;;;;5030443;28;20012;-71
2023/01/12 18:43:04;;;;;;;;;;;10.30;99.90;;;;;;5027915;28;19949;-71
2023/01/12 18:45:31;;;;;;;;;;;10.40;99.90;;;;;;5039240;28;20056;-70
2023/01/12 18:53:32;;;;;;;;;;;10.30;99.90;;;;;;5032717;28;19921;-71
2023/01/12 18:56:01;;;;;;;;;;;10.40;99.90;;;;;;5005040;28;20064;-71
2023/01/12 18:58:28;;;;;;;;;;;10.30;99.90;;;;;;5005495;28;19925;-71
2023/01/12 19:00:55;;;;;;;;;;;10.30;99.90;;;;;;5036475;28;19929;-70
2023/01/12 19:03:22;;;;;;;;;;;10.30;99.90;;;;;;5026171;28;20276;-71
2023/01/12 19:05:58;;;;;;;;;;;10.20;99.90;;;;;;5017493;28;20004;-70
2023/01/12 19:11:11;;;;;;;;;;;10.20;99.90;;;;;;5027386;28;19939;-71
2023/01/12 19:19:06;;;;;;;;;;;10.20;99.90;;;;;;5033811;28;20288;-70
2023/01/12 19:29:49;;;;;;;;;;;10.00;99.90;;;;;;5008427;28;19925;-70
2023/01/12 19:32:15;;;;;;;;;;;10.00;99.90;;;;;;5019496;28;20007;-69
2023/01/12 19:34:42;;;;;;;;;;;10.10;99.90;;;;;;5025713;28;20007;-70
2023/01/12 19:37:09;;;;;;;;;;;10.10;99.90;;;;;;5007549;28;19925;-70
2023/01/12 19:39:49;;;;;;;;;;;10.00;99.90;;;;;;5028376;28;19925;-71
2023/01/12 19:45:05;;;;;;;;;;;10.20;99.90;;;;;;5021899;28;20311;-71
2023/01/12 19:47:31;;;;;;;;;;;10.20;99.90;;;;;;5007464;28;20344;-71
2023/01/12 19:49:59;;;;;;;;;;;10.20;99.90;;;;;;5023824;28;19925;-70